Time,TemperatureF,DewpointF,PressureIn,WindDirection,WindDirectionDegrees,WindSpeedMPH,WindSpeedGustMPH,Humidity,HourlyPrecipIn,Conditions,Clouds,dailyrainin,SoftwareType,DateUTC
2013-08-26 00:00:00,64.4,61.0,29.83,SE,143,0.0,-999.0,89,-99.99,,,0.00,weatherlink.com 1.10,2013-08-26 07:00:00,
2013-08-26 00:15:00,64.3,61.0,29.84,SE,143,0.0,-999.0,88,-99.99,,,0.00,weatherlink.com 1.10,2013-08-26 07:15:00,
2013-08-26 00:30:00,64.2,61.0,29.83,SE,143,0.0,-999.0,89,-99.99,,,0.00,weatherlink.com 1.10,2013-08-26 07:30:00,
2013-08-26 00:45:00,64.0,61.0,29.83,SE,143,0.0,-999.0,89,-99.99,,,0.00,weatherlink.com 1.10,2013-08-26 07:45:00,
2013-08-26 01:00:00,63.9,61.0,29.83,SE,143,0.0,-999.0,89,-99.99,,,0.00,weatherlink.com 1.10,2013-08-26 08:00:00,
2013-08-26 01:15:00,63.9,61.0,29.83,SE,143,0.0,-999.0,89,-99.99,,,0.00,weatherlink.com 1.10,2013-08-26 08:15:00,
2013-08-26 01:30:00,63.9,61.0,29.83,SE,143,0.0,-999.0,89,-99.99,,,0.00,weatherlink.com 1.10,2013-08-26 08:30:00,
2013-08-26 01:45:00,63.8,61.0,29.82,SE,143,0.0,-999.0,89,-99.99,,,0.00,weatherlink.com 1.10,2013-08-26 08:45:00,
2013-08-26 02:00:00,63.6,60.0,29.83,SE,143,0.0,-999.0,89,-99.99,,,0.00,weatherlink.com 1.10,2013-08-26 09:00:00,
2013-08-26 02:15:00,63.7,61.0,29.83,SE,143,0.0,-999.0,89,-99.99,,,0.00,weatherlink.com 1.10,2013-08-26 09:15:00,
2013-08-26 02:30:00,63.6,60.0,29.82,SE,143,0.0,-999.0,89,-99.99,,,0.00,weatherlink.com 1.10,2013-08-26 09:30:00,
2013-08-26 02:45:00,63.4,60.0,29.82,SE,143,0.0,-999.0,89,-99.99,,,0.00,weatherlink.com 1.10,2013-08-26 09:45:00,
2013-08-26 03:00:00,63.3,60.0,29.82,SE,143,0.0,-999.0,90,-99.99,,,0.00,weatherlink.com 1.10,2013-08-26 10:00:00,
2013-08-26 03:15:00,63.3,60.0,29.83,SE,143,0.0,-999.0,90,-99.99,,,0.00,weatherlink.com 1.10,2013-08-26 10:15:00,
2013-08-26 03:30:00,63.4,61.0,29.82,SE,143,0.0,-999.0,90,-99.99,,,0.00,weatherlink.com 1.10,2013-08-26 10:30:00,
2013-08-26 03:45:00,63.6,61.0,29.83,SE,143,0.0,-999.0,90,-99.99,,,0.00,weatherlink.com 1.10,2013-08-26 10:45:00,
2013-08-26 04:00:00,63.8,61.0,29.83,SE,143,0.0,-999.0,90,-99.99,,,0.00,weatherlink.com 1.10,2013-08-26 11:00:00,
2013-08-26 04:15:00,64.0,61.0,29.82,SE,143,0.0,-999.0,90,-99.99,,,0.00,weatherlink.com 1.10,2013-08-26 11:15:00,
2013-08-26 04:30:00,64.0,61.0,29.82,SE,143,0.0,-999.0,90,-99.99,,,0.00,weatherlink.com 1.10,2013-08-26 11:30:00,
2013-08-26 04:45:00,64.0,61.0,29.82,SE,143,0.0,-999.0,91,-99.99,,,0.00,weatherlink.com 1.10,2013-08-26 11:45:00,
2013-08-26 05:00:00,63.9,61.0,29.82,SE,143,0.0,-999.0,90,-99.99,,,0.00,weatherlink.com 1.10,2013-08-26 12:00:00,
2013-08-26 05:15:00,64.0,61.0,29.82,SE,143,0.0,-999.0,91,-99.99,,,0.00,weatherlink.com 1.10,2013-08-26 12:15:00,
2013-08-26 05:30:00,64.0,61.0,29.82,SE,143,0.0,-999.0,90,-99.99,,,0.00,weatherlink.com 1.10,2013-08-26 12:30:00,
2013-08-26 05:45:00,63.8,61.0,29.82,SE,143,0.0,-999.0,90,-99.99,,,0.00,weatherlink.com 1.10,2013-08-26 12:45:00,
2013-08-26 06:00:00,63.6,61.0,29.83,SE,143,0.0,-999.0,91,-99.99,,,0.00,weatherlink.com 1.10,2013-08-26 13:00:00,
2013-08-26 06:15:00,63.5,61.0,29.83,SE,143,0.0,-999.0,91,-99.99,,,0.00,weatherlink.com 1.10,2013-08-26 13:15:00,
2013-08-26 06:30:00,63.6,61.0,29.83,SE,143,0.0,-999.0,91,-99.99,,,0.00,weatherlink.com 1.10,2013-08-26 13:30:00,
2013-08-26 06:45:00,63.8,61.0,29.83,SE,143,0.0,-999.0,91,-99.99,,,0.00,weatherlink.com 1.10,2013-08-26 13:45:00,
2013-08-26 07:00:00,63.9,61.0,29.83,SE,143,0.0,-999.0,91,-99.99,,,0.00,weatherlink.com 1.10,2013-08-26 14:00:00,
2013-08-26 07:15:00,64.4,62.0,29.83,SE,143,0.0,-999.0,91,-99.99,,,0.00,weatherlink.com 1.10,2013-08-26 14:15:00,
2013-08-26 07:30:00,65.4,63.0,29.83,NE,34,0.0,-999.0,91,-99.99,,,0.00,weatherlink.com 1.10,2013-08-26 14:30:00,
2013-08-26 07:46:00,66.9,64.0,29.84,NE,34,0.0,-999.0,90,-99.99,,,0.00,weatherlink.com 1.10,2013-08-26 14:46:00,
2013-08-26 08:01:00,68.8,65.0,29.84,NE,34,0.0,-999.0,87,-99.99,,,0.00,weatherlink.com 1.10,2013-08-26 15:01:00,
2013-08-26 08:16:00,71.0,65.0,29.84,NNE,31,0.0,-999.0,80,-99.99,,,0.00,weatherlink.com 1.10,2013-08-26 15:16:00,
2013-08-26 08:31:00,73.2,64.0,29.84,NNE,31,0.0,-999.0,72,-99.99,,,0.00,weatherlink.com 1.10,2013-08-26 15:31:00,
2013-08-26 08:46:00,74.5,63.0,29.84,NNE,31,0.0,-999.0,68,-99.99,,,0.00,weatherlink.com 1.10,2013-08-26 15:46:00,
2013-08-26 09:01:00,76.5,63.0,29.84,NNW,336,0.0,-999.0,64,-99.99,,,0.00,weatherlink.com 1.10,2013-08-26 16:01:00,
2013-08-26 09:16:00,77.8,63.0,29.84,West,259,2.0,-999.0,60,-99.99,,,0.00,weatherlink.com 1.10,2013-08-26 16:16:00,
2013-08-26 09:31:00,78.7,63.0,29.84,West,271,1.0,-999.0,59,-99.99,,,0.00,weatherlink.com 1.10,2013-08-26 16:31:00,
2013-08-26 09:46:00,80.2,62.0,29.84,North,5,2.0,-999.0,54,-99.99,,,0.00,weatherlink.com 1.10,2013-08-26 16:46:00,
2013-08-26 10:01:00,81.9,62.0,29.84,NNE,26,2.0,-999.0,52,-99.99,,,0.00,weatherlink.com 1.10,2013-08-26 17:01:00,
2013-08-26 10:16:00,83.2,62.0,29.84,NNE,26,3.0,-999.0,49,-99.99,,,0.00,weatherlink.com 1.10,2013-08-26 17:16:00,
2013-08-26 10:31:00,84.6,62.0,29.83,West,279,0.0,-999.0,46,-99.99,,,0.00,weatherlink.com 1.10,2013-08-26 17:31:00,
2013-08-26 10:46:00,85.3,63.0,29.83,West,273,2.0,-999.0,47,-99.99,,,0.00,weatherlink.com 1.10,2013-08-26 17:46:00,
2013-08-26 11:01:00,86.7,63.0,29.83,WSW,245,2.0,-999.0,45,-99.99,,,0.00,weatherlink.com 1.10,2013-08-26 18:01:00,
2013-08-26 11:16:00,87.1,66.0,29.83,SSW,192,5.0,-999.0,50,-99.99,,,0.00,weatherlink.com 1.10,2013-08-26 18:16:00,
2013-08-26 11:31:00,87.1,66.0,29.83,WNW,302,3.0,-999.0,49,-99.99,,,0.00,weatherlink.com 1.10,2013-08-26 18:31:00,
2013-08-26 11:46:00,87.4,66.0,29.83,South,174,2.0,-999.0,49,-99.99,,,0.00,weatherlink.com 1.10,2013-08-26 18:46:00,
2013-08-26 12:01:00,87.4,65.0,29.82,SSW,204,0.0,-999.0,48,-99.99,,,0.00,weatherlink.com 1.10,2013-08-26 19:01:00,
2013-08-26 12:17:00,88.8,65.0,29.82,SSW,202,5.0,-999.0,45,-99.99,,,0.00,weatherlink.com 1.10,2013-08-26 19:17:00,
2013-08-26 12:32:00,89.4,65.0,29.81,SW,225,4.0,-999.0,44,-99.99,,,0.00,weatherlink.com 1.10,2013-08-26 19:32:00,
2013-08-26 12:47:00,90.6,65.0,29.80,SSW,202,4.0,-999.0,43,-99.99,,,0.00,weatherlink.com 1.10,2013-08-26 19:47:00,
2013-08-26 13:02:00,90.7,66.0,29.80,SW,226,5.0,-999.0,44,-99.99,,,0.00,weatherlink.com 1.10,2013-08-26 20:02:00,
2013-08-26 13:17:00,91.1,66.0,29.80,SW,216,3.0,-999.0,44,-99.99,,,0.00,weatherlink.com 1.10,2013-08-26 20:17:00,
2013-08-26 13:32:00,91.5,64.0,29.80,SW,228,3.0,-999.0,40,-99.99,,,0.00,weatherlink.com 1.10,2013-08-26 20:32:00,
2013-08-26 13:47:00,91.2,64.0,29.79,SSW,209,3.0,-999.0,41,-99.99,,,0.00,weatherlink.com 1.10,2013-08-26 20:47:00,
2013-08-26 14:02:00,91.6,64.0,29.79,SW,228,4.0,-999.0,40,-99.99,,,0.00,weatherlink.com 1.10,2013-08-26 21:02:00,
2013-08-26 14:17:00,91.5,65.0,29.78,SSW,198,3.0,-999.0,41,-99.99,,,0.00,weatherlink.com 1.10,2013-08-26 21:17:00,
2013-08-26 14:32:00,90.9,65.0,29.78,WSW,241,4.0,-999.0,42,-99.99,,,0.00,weatherlink.com 1.10,2013-08-26 21:32:00,
2013-08-26 14:47:00,91.7,65.0,29.77,SSW,211,5.0,-999.0,41,-99.99,,,0.00,weatherlink.com 1.10,2013-08-26 21:47:00,
2013-08-26 15:02:00,91.3,66.0,29.77,South,169,6.0,-999.0,43,-99.99,,,0.00,weatherlink.com 1.10,2013-08-26 22:02:00,
2013-08-26 15:17:00,92.9,66.0,29.76,West,279,2.0,-999.0,41,-99.99,,,0.00,weatherlink.com 1.10,2013-08-26 22:17:00,
2013-08-26 15:32:00,93.0,65.0,29.75,South,183,6.0,-999.0,39,-99.99,,,0.00,weatherlink.com 1.10,2013-08-26 22:32:00,
2013-08-26 15:47:00,91.8,63.0,29.75,WSW,251,5.0,-999.0,39,-99.99,,,0.00,weatherlink.com 1.10,2013-08-26 22:47:00,
2013-08-26 16:02:00,91.3,63.0,29.75,WSW,238,3.0,-999.0,39,-99.99,,,0.00,weatherlink.com 1.10,2013-08-26 23:02:00,
2013-08-26 16:17:00,92.3,63.0,29.75,North,360,2.0,-999.0,38,-99.99,,,0.00,weatherlink.com 1.10,2013-08-26 23:17:00,
2013-08-26 16:32:00,91.0,63.0,29.75,NNW,343,2.0,-999.0,39,-99.99,,,0.00,weatherlink.com 1.10,2013-08-26 23:32:00,
2013-08-26 16:47:00,88.1,61.0,29.75,NW,311,3.0,-999.0,40,-99.99,,,0.00,weatherlink.com 1.10,2013-08-26 23:47:00,
2013-08-26 17:02:00,86.2,61.0,29.75,NNW,340,4.0,-999.0,43,-99.99,,,0.00,weatherlink.com 1.10,2013-08-27 00:02:00,
2013-08-26 17:17:00,85.3,60.0,29.75,WNW,300,3.0,-999.0,43,-99.99,,,0.00,weatherlink.com 1.10,2013-08-27 00:17:00,
2013-08-26 17:32:00,84.0,58.0,29.75,West,281,3.0,-999.0,41,-99.99,,,0.00,weatherlink.com 1.10,2013-08-27 00:32:00,
2013-08-26 17:47:00,82.1,57.0,29.75,WNW,300,3.0,-999.0,43,-99.99,,,0.00,weatherlink.com 1.10,2013-08-27 00:47:00,
2013-08-26 18:02:00,81.5,57.0,29.75,WNW,296,3.0,-999.0,43,-99.99,,,0.00,weatherlink.com 1.10,2013-08-27 01:02:00,
2013-08-26 18:17:00,81.3,57.0,29.74,NW,320,2.0,-999.0,43,-99.99,,,0.00,weatherlink.com 1.10,2013-08-27 01:17:00,
2013-08-26 18:32:00,81.0,57.0,29.75,North,5,1.0,-999.0,44,-99.99,,,0.00,weatherlink.com 1.10,2013-08-27 01:32:00,
2013-08-26 18:47:00,79.9,55.0,29.75,NNW,333,2.0,-999.0,43,-99.99,,,0.00,weatherlink.com 1.10,2013-08-27 01:47:00,
2013-08-26 19:02:00,79.4,56.0,29.74,North,355,2.0,-999.0,45,-99.99,,,0.00,weatherlink.com 1.10,2013-08-27 02:02:00,
2013-08-26 19:17:00,78.7,56.0,29.75,NNW,338,0.0,-999.0,46,-99.99,,,0.00,weatherlink.com 1.10,2013-08-27 02:17:00,
2013-08-26 19:32:00,77.9,57.0,29.75,North,350,2.0,-999.0,48,-99.99,,,0.00,weatherlink.com 1.10,2013-08-27 02:32:00,
2013-08-26 19:47:00,77.1,57.0,29.75,North,5,2.0,-999.0,50,-99.99,,,0.00,weatherlink.com 1.10,2013-08-27 02:47:00,
2013-08-26 20:02:00,76.4,56.0,29.75,NW,304,0.0,-999.0,50,-99.99,,,0.00,weatherlink.com 1.10,2013-08-27 03:02:00,
2013-08-26 20:17:00,76.1,57.0,29.76,NNW,328,0.0,-999.0,51,-99.99,,,0.00,weatherlink.com 1.10,2013-08-27 03:17:00,
2013-08-26 20:32:00,75.7,57.0,29.76,North,360,0.0,-999.0,52,-99.99,,,0.00,weatherlink.com 1.10,2013-08-27 03:32:00,
2013-08-26 20:47:00,75.3,57.0,29.77,North,360,0.0,-999.0,54,-99.99,,,0.00,weatherlink.com 1.10,2013-08-27 03:47:00,
2013-08-26 21:02:00,75.0,58.0,29.77,North,360,0.0,-999.0,55,-99.99,,,0.00,weatherlink.com 1.10,2013-08-27 04:02:00,
2013-08-26 21:17:00,74.8,58.0,29.77,North,360,0.0,-999.0,57,-99.99,,,0.00,weatherlink.com 1.10,2013-08-27 04:17:00,
2013-08-26 21:32:00,74.5,59.0,29.77,North,360,0.0,-999.0,58,-99.99,,,0.00,weatherlink.com 1.10,2013-08-27 04:32:00,
2013-08-26 21:47:00,74.2,59.0,29.78,North,360,0.0,-999.0,60,-99.99,,,0.00,weatherlink.com 1.10,2013-08-27 04:47:00,
2013-08-26 22:02:00,73.8,59.0,29.77,North,360,0.0,-999.0,61,-99.99,,,0.00,weatherlink.com 1.10,2013-08-27 05:02:00,
2013-08-26 22:17:00,73.5,60.0,29.77,North,360,0.0,-999.0,62,-99.99,,,0.00,weatherlink.com 1.10,2013-08-27 05:17:00,
2013-08-26 22:32:00,73.3,60.0,29.77,North,360,0.0,-999.0,64,-99.99,,,0.00,weatherlink.com 1.10,2013-08-27 05:32:00,
2013-08-26 22:47:00,72.8,61.0,29.77,North,360,0.0,-999.0,66,-99.99,,,0.00,weatherlink.com 1.10,2013-08-27 05:47:00,
2013-08-26 23:02:00,72.6,61.0,29.77,North,360,0.0,-999.0,67,-99.99,,,0.00,weatherlink.com 1.10,2013-08-27 06:02:00,
2013-08-26 23:17:00,72.5,61.0,29.77,North,360,0.0,-999.0,67,-99.99,,,0.00,weatherlink.com 1.10,2013-08-27 06:17:00,
2013-08-26 23:32:00,72.2,61.0,29.76,North,360,0.0,-999.0,69,-99.99,,,0.00,weatherlink.com 1.10,2013-08-27 06:32:00,
2013-08-26 23:47:00,72.0,61.0,29.76,North,360,0.0,-999.0,69,-99.99,,,0.00,weatherlink.com 1.10,2013-08-27 06:47:00,